Dickinson, North Dakota
Current Conditions -  °F | °C
As of 10:56 AM on Friday 28 Nov 2014 (Local Time) from KDIK Reporting Station
Scattered Clouds Scattered Clouds  
Wind Chill: 26°   Ceiling: Unl
Heat Index: 32°   Visibility: 10mi
Dew Point: 24°   Wind: 6mph
Humidity: 73%   Direction: 140°SE
Pressure: 29.57"   Gusts: NA
Location:  46.88°N, 102.79°W
Report Text: KDIK 281756Z AUTO 14005KT 10SM SCT120 00/M04 A2957 RMK AO2 SLP043 T00001044 10000 21083 58019
Loading
Personal Weather Stations






























Interactive Weather Map New forecast layout! Learn more

10-Day Weather Forecast

Advertisements
Track Severe Weather on mobile